sensor_id;sensor_type;location;lat;lon;timestamp;P1;durP1;ratioP1;P2;durP2;ratioP2
43793;SDS011;29414;44.798;20.366;2023-02-15T00:03:49;52.67;;;40.35;;
43793;SDS011;29414;44.798;20.366;2023-02-15T00:07:50;59.23;;;38.77;;
43793;SDS011;29414;44.798;20.366;2023-02-15T00:11:50;59.13;;;40.33;;
43793;SDS011;29414;44.798;20.366;2023-02-15T00:15:50;52.78;;;36.10;;
43793;SDS011;29414;44.798;20.366;2023-02-15T00:19:50;51.30;;;36.72;;
43793;SDS011;29414;44.798;20.366;2023-02-15T00:23:50;49.72;;;37.88;;
43793;SDS011;29414;44.798;20.366;2023-02-15T00:27:51;49.33;;;37.42;;
43793;SDS011;29414;44.798;20.366;2023-02-15T00:31:51;50.55;;;37.63;;
43793;SDS011;29414;44.798;20.366;2023-02-15T00:35:55;46.73;;;35.67;;
43793;SDS011;29414;44.798;20.366;2023-02-15T00:39:55;59.03;;;43.37;;
43793;SDS011;29414;44.798;20.366;2023-02-15T00:43:56;48.93;;;36.73;;
43793;SDS011;29414;44.798;20.366;2023-02-15T00:47:56;50.70;;;36.37;;
43793;SDS011;29414;44.798;20.366;2023-02-15T00:51:58;50.13;;;36.03;;
43793;SDS011;29414;44.798;20.366;2023-02-15T00:55:58;51.72;;;37.42;;
43793;SDS011;29414;44.798;20.366;2023-02-15T00:59:58;54.77;;;40.57;;
43793;SDS011;29414;44.798;20.366;2023-02-15T01:03:59;60.38;;;43.58;;
43793;SDS011;29414;44.798;20.366;2023-02-15T01:07:59;56.97;;;41.03;;
43793;SDS011;29414;44.798;20.366;2023-02-15T01:11:59;56.33;;;40.67;;
43793;SDS011;29414;44.798;20.366;2023-02-15T01:15:59;55.30;;;41.37;;
43793;SDS011;29414;44.798;20.366;2023-02-15T01:20:00;56.63;;;42.30;;
43793;SDS011;29414;44.798;20.366;2023-02-15T01:24:00;56.83;;;38.97;;
43793;SDS011;29414;44.798;20.366;2023-02-15T01:28:01;51.37;;;37.53;;
43793;SDS011;29414;44.798;20.366;2023-02-15T01:32:02;54.60;;;39.03;;
43793;SDS011;29414;44.798;20.366;2023-02-15T01:36:02;49.10;;;37.83;;
43793;SDS011;29414;44.798;20.366;2023-02-15T01:40:04;55.40;;;40.37;;
43793;SDS011;29414;44.798;20.366;2023-02-15T01:44:40;54.50;;;38.83;;
43793;SDS011;29414;44.798;20.366;2023-02-15T01:48:25;50.70;;;37.20;;
43793;SDS011;29414;44.798;20.366;2023-02-15T01:52:27;56.63;;;39.90;;
43793;SDS011;29414;44.798;20.366;2023-02-15T01:56:29;54.43;;;39.67;;
43793;SDS011;29414;44.798;20.366;2023-02-15T02:00:31;48.70;;;36.90;;
43793;SDS011;29414;44.798;20.366;2023-02-15T02:04:37;57.73;;;38.63;;
43793;SDS011;29414;44.798;20.366;2023-02-15T02:12:38;50.10;;;36.60;;
43793;SDS011;29414;44.798;20.366;2023-02-15T02:37:19;50.20;;;38.57;;
43793;SDS011;29414;44.798;20.366;2023-02-15T02:45:20;52.33;;;38.10;;
43793;SDS011;29414;44.798;20.366;2023-02-15T02:49:29;51.57;;;39.00;;
43793;SDS011;29414;44.798;20.366;2023-02-15T02:53:30;49.20;;;35.87;;
43793;SDS011;29414;44.798;20.366;2023-02-15T02:57:31;51.73;;;38.40;;
43793;SDS011;29414;44.798;20.366;2023-02-15T03:01:34;55.23;;;39.00;;
43793;SDS011;29414;44.798;20.366;2023-02-15T03:05:37;56.03;;;41.37;;
43793;SDS011;29414;44.798;20.366;2023-02-15T03:09:40;54.00;;;38.77;;
43793;SDS011;29414;44.798;20.366;2023-02-15T03:13:44;57.90;;;41.10;;
43793;SDS011;29414;44.798;20.366;2023-02-15T03:17:47;56.23;;;40.07;;
43793;SDS011;29414;44.798;20.366;2023-02-15T03:21:50;54.53;;;40.50;;
43793;SDS011;29414;44.798;20.366;2023-02-15T03:25:59;59.63;;;44.00;;
43793;SDS011;29414;44.798;20.366;2023-02-15T03:30:00;61.20;;;43.50;;
43793;SDS011;29414;44.798;20.366;2023-02-15T03:34:02;60.37;;;42.30;;
43793;SDS011;29414;44.798;20.366;2023-02-15T03:38:03;56.00;;;42.17;;
43793;SDS011;29414;44.798;20.366;2023-02-15T03:46:26;65.33;;;44.27;;
43793;SDS011;29414;44.798;20.366;2023-02-15T03:50:31;58.28;;;43.35;;
43793;SDS011;29414;44.798;20.366;2023-02-15T03:54:51;65.03;;;46.67;;
43793;SDS011;29414;44.798;20.366;2023-02-15T03:58:51;59.93;;;42.73;;
43793;SDS011;29414;44.798;20.366;2023-02-15T04:03:12;60.00;;;43.07;;
43793;SDS011;29414;44.798;20.366;2023-02-15T04:07:15;58.90;;;42.70;;
43793;SDS011;29414;44.798;20.366;2023-02-15T04:11:16;61.63;;;44.43;;
43793;SDS011;29414;44.798;20.366;2023-02-15T04:15:16;63.80;;;43.80;;
43793;SDS011;29414;44.798;20.366;2023-02-15T04:19:35;71.17;;;48.77;;
43793;SDS011;29414;44.798;20.366;2023-02-15T04:23:54;68.50;;;48.57;;
43793;SDS011;29414;44.798;20.366;2023-02-15T04:28:12;64.47;;;47.93;;
43793;SDS011;29414;44.798;20.366;2023-02-15T04:32:13;64.63;;;46.47;;
43793;SDS011;29414;44.798;20.366;2023-02-15T04:36:13;74.35;;;48.65;;
43793;SDS011;29414;44.798;20.366;2023-02-15T04:40:14;67.53;;;47.67;;
43793;SDS011;29414;44.798;20.366;2023-02-15T04:44:14;65.83;;;46.33;;
43793;SDS011;29414;44.798;20.366;2023-02-15T04:48:15;64.27;;;47.07;;
43793;SDS011;29414;44.798;20.366;2023-02-15T04:52:15;71.33;;;49.43;;
43793;SDS011;29414;44.798;20.366;2023-02-15T04:56:17;68.60;;;50.10;;
43793;SDS011;29414;44.798;20.366;2023-02-15T05:00:17;69.03;;;49.88;;
43793;SDS011;29414;44.798;20.366;2023-02-15T05:04:17;68.20;;;48.47;;
43793;SDS011;29414;44.798;20.366;2023-02-15T05:08:17;66.93;;;47.97;;
43793;SDS011;29414;44.798;20.366;2023-02-15T05:12:18;70.57;;;49.60;;
43793;SDS011;29414;44.798;20.366;2023-02-15T05:16:18;70.97;;;50.15;;
43793;SDS011;29414;44.798;20.366;2023-02-15T05:20:18;73.23;;;49.93;;
43793;SDS011;29414;44.798;20.366;2023-02-15T05:24:19;73.60;;;50.40;;
43793;SDS011;29414;44.798;20.366;2023-02-15T05:28:38;75.17;;;51.37;;
43793;SDS011;29414;44.798;20.366;2023-02-15T05:32:38;64.73;;;45.80;;
43793;SDS011;29414;44.798;20.366;2023-02-15T05:36:38;59.37;;;41.83;;
43793;SDS011;29414;44.798;20.366;2023-02-15T05:40:39;62.42;;;43.95;;
43793;SDS011;29414;44.798;20.366;2023-02-15T05:44:39;61.28;;;43.63;;
43793;SDS011;29414;44.798;20.366;2023-02-15T05:48:39;66.10;;;43.80;;
43793;SDS011;29414;44.798;20.366;2023-02-15T05:52:39;61.17;;;43.70;;
43793;SDS011;29414;44.798;20.366;2023-02-15T05:56:39;59.97;;;44.22;;
43793;SDS011;29414;44.798;20.366;2023-02-15T06:00:40;64.53;;;43.70;;
43793;SDS011;29414;44.798;20.366;2023-02-15T06:04:40;65.97;;;45.42;;
43793;SDS011;29414;44.798;20.366;2023-02-15T06:08:40;61.85;;;45.42;;
43793;SDS011;29414;44.798;20.366;2023-02-15T06:12:41;62.60;;;45.20;;
43793;SDS011;29414;44.798;20.366;2023-02-15T06:16:41;62.93;;;45.47;;
43793;SDS011;29414;44.798;20.366;2023-02-15T06:20:41;58.53;;;43.47;;
43793;SDS011;29414;44.798;20.366;2023-02-15T06:24:41;57.47;;;43.67;;
43793;SDS011;29414;44.798;20.366;2023-02-15T06:28:42;61.77;;;44.27;;
43793;SDS011;29414;44.798;20.366;2023-02-15T06:32:42;63.87;;;46.73;;
43793;SDS011;29414;44.798;20.366;2023-02-15T06:36:43;64.33;;;44.37;;
43793;SDS011;29414;44.798;20.366;2023-02-15T06:40:43;66.38;;;44.00;;
43793;SDS011;29414;44.798;20.366;2023-02-15T06:44:43;67.90;;;49.28;;
43793;SDS011;29414;44.798;20.366;2023-02-15T06:48:44;62.03;;;45.90;;
43793;SDS011;29414;44.798;20.366;2023-02-15T06:52:44;58.90;;;43.90;;
43793;SDS011;29414;44.798;20.366;2023-02-15T06:56:44;58.50;;;43.60;;
43793;SDS011;29414;44.798;20.366;2023-02-15T07:00:44;57.57;;;43.13;;
43793;SDS011;29414;44.798;20.366;2023-02-15T07:04:45;59.95;;;45.45;;
43793;SDS011;29414;44.798;20.366;2023-02-15T07:08:45;62.10;;;46.37;;
43793;SDS011;29414;44.798;20.366;2023-02-15T07:12:45;59.20;;;45.03;;
43793;SDS011;29414;44.798;20.366;2023-02-15T07:16:46;60.23;;;45.83;;
43793;SDS011;29414;44.798;20.366;2023-02-15T07:20:46;60.10;;;46.70;;
43793;SDS011;29414;44.798;20.366;2023-02-15T07:24:46;82.40;;;61.00;;
43793;SDS011;29414;44.798;20.366;2023-02-15T07:28:49;80.27;;;57.33;;
43793;SDS011;29414;44.798;20.366;2023-02-15T07:32:49;60.53;;;43.10;;
43793;SDS011;29414;44.798;20.366;2023-02-15T07:37:07;61.77;;;46.40;;
43793;SDS011;29414;44.798;20.366;2023-02-15T07:41:12;55.00;;;42.22;;
43793;SDS011;29414;44.798;20.366;2023-02-15T07:45:12;51.77;;;40.53;;
43793;SDS011;29414;44.798;20.366;2023-02-15T07:49:12;49.37;;;38.43;;
43793;SDS011;29414;44.798;20.366;2023-02-15T07:53:13;49.23;;;37.57;;
43793;SDS011;29414;44.798;20.366;2023-02-15T07:57:13;46.15;;;36.53;;
43793;SDS011;29414;44.798;20.366;2023-02-15T08:01:14;49.13;;;37.40;;
43793;SDS011;29414;44.798;20.366;2023-02-15T08:05:14;42.03;;;33.07;;
43793;SDS011;29414;44.798;20.366;2023-02-15T08:09:16;41.60;;;34.20;;
43793;SDS011;29414;44.798;20.366;2023-02-15T08:13:17;43.15;;;32.90;;
43793;SDS011;29414;44.798;20.366;2023-02-15T08:17:17;42.95;;;33.80;;
43793;SDS011;29414;44.798;20.366;2023-02-15T08:21:18;36.47;;;31.53;;
43793;SDS011;29414;44.798;20.366;2023-02-15T08:25:19;39.63;;;31.87;;
43793;SDS011;29414;44.798;20.366;2023-02-15T08:29:20;36.35;;;30.33;;
43793;SDS011;29414;44.798;20.366;2023-02-15T08:33:22;37.90;;;30.73;;
43793;SDS011;29414;44.798;20.366;2023-02-15T08:37:22;36.25;;;29.48;;
43793;SDS011;29414;44.798;20.366;2023-02-15T08:41:23;32.27;;;26.90;;
43793;SDS011;29414;44.798;20.366;2023-02-15T08:45:24;33.23;;;26.43;;
43793;SDS011;29414;44.798;20.366;2023-02-15T08:49:25;39.53;;;29.73;;
43793;SDS011;29414;44.798;20.366;2023-02-15T08:53:25;35.53;;;27.57;;
43793;SDS011;29414;44.798;20.366;2023-02-15T08:57:25;36.67;;;26.73;;
43793;SDS011;29414;44.798;20.366;2023-02-15T09:01:28;34.43;;;28.23;;
43793;SDS011;29414;44.798;20.366;2023-02-15T09:05:28;36.00;;;28.50;;
43793;SDS011;29414;44.798;20.366;2023-02-15T09:09:28;37.47;;;29.33;;
43793;SDS011;29414;44.798;20.366;2023-02-15T09:13:29;41.40;;;31.30;;
43793;SDS011;29414;44.798;20.366;2023-02-15T09:17:29;40.97;;;32.17;;
43793;SDS011;29414;44.798;20.366;2023-02-15T09:21:30;35.83;;;29.73;;
43793;SDS011;29414;44.798;20.366;2023-02-15T09:25:30;37.17;;;30.57;;
43793;SDS011;29414;44.798;20.366;2023-02-15T09:29:30;36.35;;;29.05;;
43793;SDS011;29414;44.798;20.366;2023-02-15T09:33:32;36.72;;;29.02;;
43793;SDS011;29414;44.798;20.366;2023-02-15T09:37:32;30.50;;;25.93;;
43793;SDS011;29414;44.798;20.366;2023-02-15T09:46:01;31.33;;;24.77;;
43793;SDS011;29414;44.798;20.366;2023-02-15T10:06:44;25.00;;;20.50;;
43793;SDS011;29414;44.798;20.366;2023-02-15T10:27:22;17.27;;;14.70;;
43793;SDS011;29414;44.798;20.366;2023-02-15T10:56:24;19.17;;;17.08;;
43793;SDS011;29414;44.798;20.366;2023-02-15T11:08:37;18.27;;;16.33;;
43793;SDS011;29414;44.798;20.366;2023-02-15T11:12:40;19.55;;;17.58;;
43793;SDS011;29414;44.798;20.366;2023-02-15T11:16:43;21.10;;;18.80;;
43793;SDS011;29414;44.798;20.366;2023-02-15T11:33:20;21.17;;;16.67;;
43793;SDS011;29414;44.798;20.366;2023-02-15T11:37:58;18.35;;;15.93;;
43793;SDS011;29414;44.798;20.366;2023-02-15T11:45:51;17.13;;;15.33;;
43793;SDS011;29414;44.798;20.366;2023-02-15T11:49:52;16.83;;;15.02;;
43793;SDS011;29414;44.798;20.366;2023-02-15T11:53:52;18.14;;;15.78;;
43793;SDS011;29414;44.798;20.366;2023-02-15T11:58:04;20.52;;;17.48;;
43793;SDS011;29414;44.798;20.366;2023-02-15T12:02:14;16.85;;;15.10;;
43793;SDS011;29414;44.798;20.366;2023-02-15T12:06:21;19.80;;;17.05;;
43793;SDS011;29414;44.798;20.366;2023-02-15T12:10:24;16.52;;;14.82;;
43793;SDS011;29414;44.798;20.366;2023-02-15T12:14:25;20.38;;;16.77;;
43793;SDS011;29414;44.798;20.366;2023-02-15T12:18:31;20.80;;;18.60;;
43793;SDS011;29414;44.798;20.366;2023-02-15T12:22:34;20.30;;;17.70;;
43793;SDS011;29414;44.798;20.366;2023-02-15T12:26:36;18.20;;;16.38;;
43793;SDS011;29414;44.798;20.366;2023-02-15T12:30:36;20.25;;;17.48;;
43793;SDS011;29414;44.798;20.366;2023-02-15T12:34:37;18.75;;;16.60;;
43793;SDS011;29414;44.798;20.366;2023-02-15T12:38:43;18.55;;;16.30;;
43793;SDS011;29414;44.798;20.366;2023-02-15T12:43:01;17.80;;;15.98;;
43793;SDS011;29414;44.798;20.366;2023-02-15T12:51:08;23.08;;;20.73;;
43793;SDS011;29414;44.798;20.366;2023-02-15T12:55:17;21.90;;;19.58;;
43793;SDS011;29414;44.798;20.366;2023-02-15T12:59:18;22.08;;;19.50;;
43793;SDS011;29414;44.798;20.366;2023-02-15T13:03:22;21.43;;;19.13;;
43793;SDS011;29414;44.798;20.366;2023-02-15T13:07:24;22.13;;;19.47;;
43793;SDS011;29414;44.798;20.366;2023-02-15T13:11:26;21.50;;;18.00;;
43793;SDS011;29414;44.798;20.366;2023-02-15T13:15:34;20.90;;;17.47;;
43793;SDS011;29414;44.798;20.366;2023-02-15T13:19:37;20.80;;;18.27;;
43793;SDS011;29414;44.798;20.366;2023-02-15T13:23:41;20.97;;;18.77;;
43793;SDS011;29414;44.798;20.366;2023-02-15T13:27:42;19.93;;;17.70;;
43793;SDS011;29414;44.798;20.366;2023-02-15T13:31:43;21.97;;;19.57;;
43793;SDS011;29414;44.798;20.366;2023-02-15T13:35:46;19.52;;;16.95;;
43793;SDS011;29414;44.798;20.366;2023-02-15T13:40:01;19.33;;;17.38;;
43793;SDS011;29414;44.798;20.366;2023-02-15T13:52:25;26.08;;;20.74;;
43793;SDS011;29414;44.798;20.366;2023-02-15T14:09:29;24.08;;;19.45;;
43793;SDS011;29414;44.798;20.366;2023-02-15T14:21:22;21.67;;;19.00;;
43793;SDS011;29414;44.798;20.366;2023-02-15T14:25:29;21.77;;;19.50;;
43793;SDS011;29414;44.798;20.366;2023-02-15T14:33:42;23.42;;;21.05;;
43793;SDS011;29414;44.798;20.366;2023-02-15T14:37:55;20.77;;;18.67;;
43793;SDS011;29414;44.798;20.366;2023-02-15T14:41:59;23.25;;;20.75;;
43793;SDS011;29414;44.798;20.366;2023-02-15T14:46:10;21.97;;;19.67;;
43793;SDS011;29414;44.798;20.366;2023-02-15T14:50:35;22.40;;;20.10;;
43793;SDS011;29414;44.798;20.366;2023-02-15T14:58:37;28.20;;;21.70;;
43793;SDS011;29414;44.798;20.366;2023-02-15T15:02:45;25.45;;;21.02;;
43793;SDS011;29414;44.798;20.366;2023-02-15T15:06:56;24.67;;;21.53;;
43793;SDS011;29414;44.798;20.366;2023-02-15T15:10:57;23.40;;;20.73;;
43793;SDS011;29414;44.798;20.366;2023-02-15T15:23:45;26.40;;;20.90;;
43793;SDS011;29414;44.798;20.366;2023-02-15T15:27:52;25.03;;;21.73;;
43793;SDS011;29414;44.798;20.366;2023-02-15T15:31:53;28.80;;;22.73;;
43793;SDS011;29414;44.798;20.366;2023-02-15T15:48:28;32.93;;;26.10;;
43793;SDS011;29414;44.798;20.366;2023-02-15T15:52:32;32.23;;;24.80;;
43793;SDS011;29414;44.798;20.366;2023-02-15T15:56:38;28.83;;;24.53;;
43793;SDS011;29414;44.798;20.366;2023-02-15T16:04:44;34.83;;;26.93;;
43793;SDS011;29414;44.798;20.366;2023-02-15T16:08:47;38.87;;;29.63;;
43793;SDS011;29414;44.798;20.366;2023-02-15T16:12:47;49.67;;;37.70;;
43793;SDS011;29414;44.798;20.366;2023-02-15T16:16:49;59.83;;;44.57;;
43793;SDS011;29414;44.798;20.366;2023-02-15T16:28:54;57.33;;;38.93;;
43793;SDS011;29414;44.798;20.366;2023-02-15T16:33:04;55.87;;;39.50;;
43793;SDS011;29414;44.798;20.366;2023-02-15T16:37:12;53.40;;;37.47;;
43793;SDS011;29414;44.798;20.366;2023-02-15T16:45:13;45.78;;;32.45;;
43793;SDS011;29414;44.798;20.366;2023-02-15T16:49:20;41.40;;;32.03;;
43793;SDS011;29414;44.798;20.366;2023-02-15T16:53:23;48.30;;;33.93;;
43793;SDS011;29414;44.798;20.366;2023-02-15T16:57:34;44.37;;;32.47;;
43793;SDS011;29414;44.798;20.366;2023-02-15T17:01:35;46.03;;;32.93;;
43793;SDS011;29414;44.798;20.366;2023-02-15T17:05:45;41.53;;;31.13;;
43793;SDS011;29414;44.798;20.366;2023-02-15T17:09:53;52.50;;;33.53;;
43793;SDS011;29414;44.798;20.366;2023-02-15T17:18:21;41.53;;;31.97;;
43793;SDS011;29414;44.798;20.366;2023-02-15T17:22:23;50.73;;;34.87;;
43793;SDS011;29414;44.798;20.366;2023-02-15T17:26:24;58.03;;;43.07;;
43793;SDS011;29414;44.798;20.366;2023-02-15T17:30:28;69.13;;;45.23;;
43793;SDS011;29414;44.798;20.366;2023-02-15T17:42:56;73.67;;;53.93;;
43793;SDS011;29414;44.798;20.366;2023-02-15T17:46:57;69.87;;;48.67;;
43793;SDS011;29414;44.798;20.366;2023-02-15T17:50:58;78.43;;;51.47;;
43793;SDS011;29414;44.798;20.366;2023-02-15T17:54:59;69.47;;;49.93;;
43793;SDS011;29414;44.798;20.366;2023-02-15T17:59:20;62.73;;;47.27;;
43793;SDS011;29414;44.798;20.366;2023-02-15T18:03:21;53.63;;;40.08;;
43793;SDS011;29414;44.798;20.366;2023-02-15T18:07:39;47.07;;;35.63;;
43793;SDS011;29414;44.798;20.366;2023-02-15T18:11:59;43.60;;;33.47;;
43793;SDS011;29414;44.798;20.366;2023-02-15T18:15:59;49.57;;;34.53;;
43793;SDS011;29414;44.798;20.366;2023-02-15T18:20:00;61.67;;;40.87;;
43793;SDS011;29414;44.798;20.366;2023-02-15T18:24:04;60.13;;;40.73;;
43793;SDS011;29414;44.798;20.366;2023-02-15T18:28:04;72.97;;;47.70;;
43793;SDS011;29414;44.798;20.366;2023-02-15T18:32:12;75.47;;;50.73;;
43793;SDS011;29414;44.798;20.366;2023-02-15T18:36:18;68.33;;;49.27;;
43793;SDS011;29414;44.798;20.366;2023-02-15T18:40:20;69.80;;;47.40;;
43793;SDS011;29414;44.798;20.366;2023-02-15T18:44:21;78.83;;;49.43;;
43793;SDS011;29414;44.798;20.366;2023-02-15T18:48:21;67.77;;;45.37;;
43793;SDS011;29414;44.798;20.366;2023-02-15T18:52:22;80.53;;;57.10;;
43793;SDS011;29414;44.798;20.366;2023-02-15T18:56:23;92.40;;;60.33;;
43793;SDS011;29414;44.798;20.366;2023-02-15T19:00:24;118.13;;;76.27;;
43793;SDS011;29414;44.798;20.366;2023-02-15T19:04:25;105.83;;;76.73;;
43793;SDS011;29414;44.798;20.366;2023-02-15T19:08:25;93.63;;;62.88;;
43793;SDS011;29414;44.798;20.366;2023-02-15T19:12:26;99.82;;;65.80;;
43793;SDS011;29414;44.798;20.366;2023-02-15T19:16:31;89.83;;;62.47;;
43793;SDS011;29414;44.798;20.366;2023-02-15T19:20:35;91.03;;;61.87;;
43793;SDS011;29414;44.798;20.366;2023-02-15T19:24:36;79.83;;;58.60;;
43793;SDS011;29414;44.798;20.366;2023-02-15T19:28:38;85.13;;;60.13;;
43793;SDS011;29414;44.798;20.366;2023-02-15T19:32:38;74.45;;;53.38;;
43793;SDS011;29414;44.798;20.366;2023-02-15T19:36:38;66.70;;;48.55;;
43793;SDS011;29414;44.798;20.366;2023-02-15T19:40:38;68.43;;;48.43;;
43793;SDS011;29414;44.798;20.366;2023-02-15T19:44:39;65.70;;;49.33;;
43793;SDS011;29414;44.798;20.366;2023-02-15T19:48:42;70.13;;;51.70;;
43793;SDS011;29414;44.798;20.366;2023-02-15T19:52:42;71.63;;;50.03;;
43793;SDS011;29414;44.798;20.366;2023-02-15T19:56:43;73.43;;;53.13;;
43793;SDS011;29414;44.798;20.366;2023-02-15T20:00:43;74.05;;;53.20;;
43793;SDS011;29414;44.798;20.366;2023-02-15T20:04:47;77.80;;;55.83;;
43793;SDS011;29414;44.798;20.366;2023-02-15T20:08:47;87.27;;;61.50;;
43793;SDS011;29414;44.798;20.366;2023-02-15T20:12:48;83.60;;;58.13;;
43793;SDS011;29414;44.798;20.366;2023-02-15T20:16:48;78.90;;;55.13;;
43793;SDS011;29414;44.798;20.366;2023-02-15T20:20:50;71.57;;;53.07;;
43793;SDS011;29414;44.798;20.366;2023-02-15T20:24:50;72.07;;;54.17;;
43793;SDS011;29414;44.798;20.366;2023-02-15T20:28:51;80.10;;;55.73;;
43793;SDS011;29414;44.798;20.366;2023-02-15T20:32:52;80.20;;;56.20;;
43793;SDS011;29414;44.798;20.366;2023-02-15T20:36:52;96.10;;;70.33;;
43793;SDS011;29414;44.798;20.366;2023-02-15T20:40:52;88.57;;;62.07;;
43793;SDS011;29414;44.798;20.366;2023-02-15T20:45:22;88.93;;;63.83;;
43793;SDS011;29414;44.798;20.366;2023-02-15T20:49:24;89.57;;;63.53;;
43793;SDS011;29414;44.798;20.366;2023-02-15T20:53:25;99.73;;;71.73;;
43793;SDS011;29414;44.798;20.366;2023-02-15T20:57:26;118.77;;;84.60;;
43793;SDS011;29414;44.798;20.366;2023-02-15T21:01:26;114.00;;;81.10;;
43793;SDS011;29414;44.798;20.366;2023-02-15T21:05:27;114.33;;;79.10;;
43793;SDS011;29414;44.798;20.366;2023-02-15T21:09:29;105.07;;;72.10;;
43793;SDS011;29414;44.798;20.366;2023-02-15T21:13:30;96.30;;;69.17;;
43793;SDS011;29414;44.798;20.366;2023-02-15T21:17:30;98.80;;;67.73;;
43793;SDS011;29414;44.798;20.366;2023-02-15T21:21:31;97.33;;;71.10;;
43793;SDS011;29414;44.798;20.366;2023-02-15T21:25:35;95.23;;;70.80;;
43793;SDS011;29414;44.798;20.366;2023-02-15T21:29:35;94.10;;;68.63;;
43793;SDS011;29414;44.798;20.366;2023-02-15T21:33:36;92.07;;;65.57;;
43793;SDS011;29414;44.798;20.366;2023-02-15T21:37:36;84.53;;;60.25;;
43793;SDS011;29414;44.798;20.366;2023-02-15T21:41:38;80.83;;;58.47;;
43793;SDS011;29414;44.798;20.366;2023-02-15T21:45:58;69.87;;;49.37;;
43793;SDS011;29414;44.798;20.366;2023-02-15T21:50:19;80.73;;;55.17;;
43793;SDS011;29414;44.798;20.366;2023-02-15T21:54:41;73.20;;;53.07;;
43793;SDS011;29414;44.798;20.366;2023-02-15T21:58:41;68.43;;;49.80;;
43793;SDS011;29414;44.798;20.366;2023-02-15T22:02:42;63.90;;;48.10;;
43793;SDS011;29414;44.798;20.366;2023-02-15T22:06:43;63.97;;;49.27;;
43793;SDS011;29414;44.798;20.366;2023-02-15T22:10:43;62.27;;;47.70;;
43793;SDS011;29414;44.798;20.366;2023-02-15T22:14:44;62.63;;;45.63;;
43793;SDS011;29414;44.798;20.366;2023-02-15T22:18:49;62.70;;;46.63;;
43793;SDS011;29414;44.798;20.366;2023-02-15T22:22:49;72.03;;;51.57;;
43793;SDS011;29414;44.798;20.366;2023-02-15T22:26:50;85.47;;;57.33;;
43793;SDS011;29414;44.798;20.366;2023-02-15T22:30:50;84.20;;;60.30;;
43793;SDS011;29414;44.798;20.366;2023-02-15T22:34:51;75.60;;;53.13;;
43793;SDS011;29414;44.798;20.366;2023-02-15T22:38:52;79.83;;;55.50;;
43793;SDS011;29414;44.798;20.366;2023-02-15T22:42:52;83.43;;;60.23;;
43793;SDS011;29414;44.798;20.366;2023-02-15T22:46:53;88.83;;;62.17;;
43793;SDS011;29414;44.798;20.366;2023-02-15T22:50:54;79.00;;;56.27;;
43793;SDS011;29414;44.798;20.366;2023-02-15T22:54:54;73.50;;;52.67;;
43793;SDS011;29414;44.798;20.366;2023-02-15T22:58:56;68.60;;;49.00;;
43793;SDS011;29414;44.798;20.366;2023-02-15T23:02:58;64.13;;;44.47;;
43793;SDS011;29414;44.798;20.366;2023-02-15T23:06:58;63.27;;;43.53;;
43793;SDS011;29414;44.798;20.366;2023-02-15T23:10:59;66.67;;;46.50;;
43793;SDS011;29414;44.798;20.366;2023-02-15T23:15:00;64.82;;;46.85;;
43793;SDS011;29414;44.798;20.366;2023-02-15T23:19:00;61.43;;;44.43;;
43793;SDS011;29414;44.798;20.366;2023-02-15T23:23:00;55.67;;;41.00;;
43793;SDS011;29414;44.798;20.366;2023-02-15T23:27:00;62.35;;;43.85;;
43793;SDS011;29414;44.798;20.366;2023-02-15T23:31:20;58.87;;;41.80;;
43793;SDS011;29414;44.798;20.366;2023-02-15T23:35:21;57.03;;;43.47;;
43793;SDS011;29414;44.798;20.366;2023-02-15T23:39:22;57.35;;;40.95;;
43793;SDS011;29414;44.798;20.366;2023-02-15T23:43:42;54.57;;;42.07;;
43793;SDS011;29414;44.798;20.366;2023-02-15T23:47:43;57.63;;;40.57;;
43793;SDS011;29414;44.798;20.366;2023-02-15T23:52:04;54.20;;;40.53;;
43793;SDS011;29414;44.798;20.366;2023-02-15T23:56:05;49.70;;;38.27;;
